sensor_id;sensor_type;location;lat;lon;timestamp;P1;durP1;ratioP1;P2;durP2;ratioP2
19049;SDS011;9657;45.940;12.840;2023-06-14T00:01:57;6.18;;;5.05;;
19049;SDS011;9657;45.940;12.840;2023-06-14T00:04:25;6.15;;;4.57;;
19049;SDS011;9657;45.940;12.840;2023-06-14T00:06:52;5.43;;;4.68;;
19049;SDS011;9657;45.940;12.840;2023-06-14T00:09:21;6.22;;;5.00;;
19049;SDS011;9657;45.940;12.840;2023-06-14T00:11:49;6.05;;;4.68;;
19049;SDS011;9657;45.940;12.840;2023-06-14T00:14:16;7.93;;;4.32;;
19049;SDS011;9657;45.940;12.840;2023-06-14T00:16:43;5.35;;;4.53;;
19049;SDS011;9657;45.940;12.840;2023-06-14T00:19:10;7.05;;;4.78;;
19049;SDS011;9657;45.940;12.840;2023-06-14T00:21:38;7.90;;;5.00;;
19049;SDS011;9657;45.940;12.840;2023-06-14T00:24:05;6.82;;;4.70;;
19049;SDS011;9657;45.940;12.840;2023-06-14T00:26:33;5.45;;;4.57;;
19049;SDS011;9657;45.940;12.840;2023-06-14T00:29:00;6.53;;;4.68;;
19049;SDS011;9657;45.940;12.840;2023-06-14T00:31:27;5.50;;;4.65;;
19049;SDS011;9657;45.940;12.840;2023-06-14T00:33:55;4.75;;;4.07;;
19049;SDS011;9657;45.940;12.840;2023-06-14T00:36:22;5.97;;;4.28;;
19049;SDS011;9657;45.940;12.840;2023-06-14T00:38:50;4.65;;;4.18;;
19049;SDS011;9657;45.940;12.840;2023-06-14T00:41:17;6.38;;;4.60;;
19049;SDS011;9657;45.940;12.840;2023-06-14T00:43:44;6.72;;;4.30;;
19049;SDS011;9657;45.940;12.840;2023-06-14T00:46:11;5.82;;;4.13;;
19049;SDS011;9657;45.940;12.840;2023-06-14T00:48:38;6.45;;;4.07;;
19049;SDS011;9657;45.940;12.840;2023-06-14T00:51:06;6.55;;;4.50;;
19049;SDS011;9657;45.940;12.840;2023-06-14T00:53:34;6.00;;;4.28;;
19049;SDS011;9657;45.940;12.840;2023-06-14T00:56:02;5.45;;;4.03;;
19049;SDS011;9657;45.940;12.840;2023-06-14T00:58:30;7.63;;;4.57;;
19049;SDS011;9657;45.940;12.840;2023-06-14T01:03:33;5.30;;;4.13;;
19049;SDS011;9657;45.940;12.840;2023-06-14T01:06:03;6.60;;;3.92;;
19049;SDS011;9657;45.940;12.840;2023-06-14T01:08:41;4.95;;;3.60;;
19049;SDS011;9657;45.940;12.840;2023-06-14T01:11:16;4.72;;;4.07;;
19049;SDS011;9657;45.940;12.840;2023-06-14T01:13:48;5.18;;;3.58;;
19049;SDS011;9657;45.940;12.840;2023-06-14T01:16:18;5.35;;;4.32;;
19049;SDS011;9657;45.940;12.840;2023-06-14T01:18:45;6.10;;;4.30;;
19049;SDS011;9657;45.940;12.840;2023-06-14T01:21:19;6.53;;;4.43;;
19049;SDS011;9657;45.940;12.840;2023-06-14T01:23:48;6.45;;;3.92;;
19049;SDS011;9657;45.940;12.840;2023-06-14T01:26:18;5.53;;;4.07;;
19049;SDS011;9657;45.940;12.840;2023-06-14T01:28:46;4.85;;;3.83;;
19049;SDS011;9657;45.940;12.840;2023-06-14T01:31:16;5.68;;;3.97;;
19049;SDS011;9657;45.940;12.840;2023-06-14T01:33:46;5.88;;;3.90;;
19049;SDS011;9657;45.940;12.840;2023-06-14T01:36:15;6.95;;;4.00;;
19049;SDS011;9657;45.940;12.840;2023-06-14T01:38:44;4.00;;;3.38;;
19049;SDS011;9657;45.940;12.840;2023-06-14T01:41:14;5.03;;;3.67;;
19049;SDS011;9657;45.940;12.840;2023-06-14T01:43:43;4.57;;;3.90;;
19049;SDS011;9657;45.940;12.840;2023-06-14T01:46:11;5.22;;;3.90;;
19049;SDS011;9657;45.940;12.840;2023-06-14T01:48:40;5.80;;;3.65;;
19049;SDS011;9657;45.940;12.840;2023-06-14T01:51:08;4.57;;;3.65;;
19049;SDS011;9657;45.940;12.840;2023-06-14T01:53:35;5.28;;;3.65;;
19049;SDS011;9657;45.940;12.840;2023-06-14T01:56:02;5.47;;;3.65;;
19049;SDS011;9657;45.940;12.840;2023-06-14T01:58:31;5.50;;;4.00;;
19049;SDS011;9657;45.940;12.840;2023-06-14T02:00:59;4.28;;;3.88;;
19049;SDS011;9657;45.940;12.840;2023-06-14T02:03:26;5.53;;;3.83;;
19049;SDS011;9657;45.940;12.840;2023-06-14T02:05:53;5.05;;;3.75;;
19049;SDS011;9657;45.940;12.840;2023-06-14T02:08:20;4.65;;;3.33;;
19049;SDS011;9657;45.940;12.840;2023-06-14T02:10:47;4.43;;;3.22;;
19049;SDS011;9657;45.940;12.840;2023-06-14T02:13:14;4.57;;;3.92;;
19049;SDS011;9657;45.940;12.840;2023-06-14T02:15:43;4.97;;;3.47;;
19049;SDS011;9657;45.940;12.840;2023-06-14T02:18:10;3.97;;;3.50;;
19049;SDS011;9657;45.940;12.840;2023-06-14T02:20:38;3.50;;;3.20;;
19049;SDS011;9657;45.940;12.840;2023-06-14T02:23:05;3.92;;;3.53;;
19049;SDS011;9657;45.940;12.840;2023-06-14T02:25:33;4.05;;;3.50;;
19049;SDS011;9657;45.940;12.840;2023-06-14T02:28:00;4.03;;;3.60;;
19049;SDS011;9657;45.940;12.840;2023-06-14T02:30:27;4.57;;;3.53;;
19049;SDS011;9657;45.940;12.840;2023-06-14T02:32:56;4.13;;;3.22;;
19049;SDS011;9657;45.940;12.840;2023-06-14T02:35:24;3.65;;;3.35;;
19049;SDS011;9657;45.940;12.840;2023-06-14T02:37:51;5.53;;;3.40;;
19049;SDS011;9657;45.940;12.840;2023-06-14T02:40:19;3.22;;;2.92;;
19049;SDS011;9657;45.940;12.840;2023-06-14T02:42:46;3.58;;;3.10;;
19049;SDS011;9657;45.940;12.840;2023-06-14T02:45:13;4.95;;;3.50;;
19049;SDS011;9657;45.940;12.840;2023-06-14T02:47:40;3.58;;;3.28;;
19049;SDS011;9657;45.940;12.840;2023-06-14T02:50:09;4.90;;;3.80;;
19049;SDS011;9657;45.940;12.840;2023-06-14T02:52:36;4.05;;;3.33;;
19049;SDS011;9657;45.940;12.840;2023-06-14T02:55:03;4.05;;;3.28;;
19049;SDS011;9657;45.940;12.840;2023-06-14T02:57:31;4.22;;;3.83;;
19049;SDS011;9657;45.940;12.840;2023-06-14T02:59:58;3.47;;;3.17;;
19049;SDS011;9657;45.940;12.840;2023-06-14T03:02:25;3.85;;;3.35;;
19049;SDS011;9657;45.940;12.840;2023-06-14T03:04:52;4.53;;;3.13;;
19049;SDS011;9657;45.940;12.840;2023-06-14T03:07:22;5.18;;;3.42;;
19049;SDS011;9657;45.940;12.840;2023-06-14T03:09:50;4.97;;;3.17;;
19049;SDS011;9657;45.940;12.840;2023-06-14T03:12:17;3.63;;;3.28;;
19049;SDS011;9657;45.940;12.840;2023-06-14T03:14:46;4.40;;;2.97;;
19049;SDS011;9657;45.940;12.840;2023-06-14T03:17:13;3.28;;;2.95;;
19049;SDS011;9657;45.940;12.840;2023-06-14T03:19:42;4.38;;;3.35;;
19049;SDS011;9657;45.940;12.840;2023-06-14T03:22:09;4.07;;;3.45;;
19049;SDS011;9657;45.940;12.840;2023-06-14T03:24:38;3.47;;;3.17;;
19049;SDS011;9657;45.940;12.840;2023-06-14T03:27:06;4.80;;;3.03;;
19049;SDS011;9657;45.940;12.840;2023-06-14T03:29:35;3.35;;;3.05;;
19049;SDS011;9657;45.940;12.840;2023-06-14T03:32:02;3.47;;;3.17;;
19049;SDS011;9657;45.940;12.840;2023-06-14T03:34:30;4.15;;;3.70;;
19049;SDS011;9657;45.940;12.840;2023-06-14T03:36:57;3.58;;;3.28;;
19049;SDS011;9657;45.940;12.840;2023-06-14T03:39:24;3.47;;;2.85;;
19049;SDS011;9657;45.940;12.840;2023-06-14T03:41:52;3.85;;;3.55;;
19049;SDS011;9657;45.940;12.840;2023-06-14T03:44:20;4.65;;;3.65;;
19049;SDS011;9657;45.940;12.840;2023-06-14T03:46:47;4.10;;;3.70;;
19049;SDS011;9657;45.940;12.840;2023-06-14T03:49:15;3.33;;;3.03;;
19049;SDS011;9657;45.940;12.840;2023-06-14T03:51:42;3.60;;;3.30;;
19049;SDS011;9657;45.940;12.840;2023-06-14T03:54:10;3.42;;;3.10;;
19049;SDS011;9657;45.940;12.840;2023-06-14T03:56:37;3.50;;;3.20;;
19049;SDS011;9657;45.940;12.840;2023-06-14T03:59:05;3.30;;;3.00;;
19049;SDS011;9657;45.940;12.840;2023-06-14T04:01:32;4.22;;;3.63;;
19049;SDS011;9657;45.940;12.840;2023-06-14T04:03:59;3.75;;;3.30;;
19049;SDS011;9657;45.940;12.840;2023-06-14T04:06:26;3.38;;;3.08;;
19049;SDS011;9657;45.940;12.840;2023-06-14T04:08:58;3.38;;;3.08;;
19049;SDS011;9657;45.940;12.840;2023-06-14T04:11:28;4.55;;;3.38;;
19049;SDS011;9657;45.940;12.840;2023-06-14T04:13:55;3.60;;;3.30;;
19049;SDS011;9657;45.940;12.840;2023-06-14T04:16:24;3.78;;;3.38;;
19049;SDS011;9657;45.940;12.840;2023-06-14T04:18:51;4.60;;;3.83;;
19049;SDS011;9657;45.940;12.840;2023-06-14T04:21:18;3.65;;;3.35;;
19049;SDS011;9657;45.940;12.840;2023-06-14T04:23:46;3.40;;;3.10;;
19049;SDS011;9657;45.940;12.840;2023-06-14T04:26:13;3.08;;;2.83;;
19049;SDS011;9657;45.940;12.840;2023-06-14T04:28:41;3.78;;;3.40;;
19049;SDS011;9657;45.940;12.840;2023-06-14T04:31:10;3.60;;;3.25;;
19049;SDS011;9657;45.940;12.840;2023-06-14T04:33:38;3.22;;;2.92;;
19049;SDS011;9657;45.940;12.840;2023-06-14T04:36:10;3.63;;;3.28;;
19049;SDS011;9657;45.940;12.840;2023-06-14T04:38:38;3.47;;;3.17;;
19049;SDS011;9657;45.940;12.840;2023-06-14T04:41:06;3.10;;;2.83;;
19049;SDS011;9657;45.940;12.840;2023-06-14T04:43:36;3.22;;;3.03;;
19049;SDS011;9657;45.940;12.840;2023-06-14T04:46:04;4.10;;;3.40;;
19049;SDS011;9657;45.940;12.840;2023-06-14T04:48:36;5.00;;;3.58;;
19049;SDS011;9657;45.940;12.840;2023-06-14T04:51:07;4.03;;;3.22;;
19049;SDS011;9657;45.940;12.840;2023-06-14T04:53:35;3.40;;;3.13;;
19049;SDS011;9657;45.940;12.840;2023-06-14T04:56:02;3.90;;;3.42;;
19049;SDS011;9657;45.940;12.840;2023-06-14T04:58:29;4.20;;;3.45;;
19049;SDS011;9657;45.940;12.840;2023-06-14T05:00:56;4.60;;;3.38;;
19049;SDS011;9657;45.940;12.840;2023-06-14T05:03:24;3.53;;;3.22;;
19049;SDS011;9657;45.940;12.840;2023-06-14T05:05:52;3.92;;;3.30;;
19049;SDS011;9657;45.940;12.840;2023-06-14T05:08:20;3.78;;;3.47;;
19049;SDS011;9657;45.940;12.840;2023-06-14T05:10:49;4.15;;;3.53;;
19049;SDS011;9657;45.940;12.840;2023-06-14T05:13:16;4.97;;;3.15;;
19049;SDS011;9657;45.940;12.840;2023-06-14T05:15:44;3.15;;;2.85;;
19049;SDS011;9657;45.940;12.840;2023-06-14T05:18:11;5.75;;;2.75;;
19049;SDS011;9657;45.940;12.840;2023-06-14T05:20:38;3.92;;;3.58;;
19049;SDS011;9657;45.940;12.840;2023-06-14T05:23:06;3.95;;;3.00;;
19049;SDS011;9657;45.940;12.840;2023-06-14T05:25:41;4.53;;;3.22;;
19049;SDS011;9657;45.940;12.840;2023-06-14T05:28:08;4.07;;;3.10;;
19049;SDS011;9657;45.940;12.840;2023-06-14T05:30:37;5.25;;;3.20;;
19049;SDS011;9657;45.940;12.840;2023-06-14T05:33:04;4.25;;;3.65;;
19049;SDS011;9657;45.940;12.840;2023-06-14T05:35:32;4.05;;;3.22;;
19049;SDS011;9657;45.940;12.840;2023-06-14T05:37:59;4.80;;;3.58;;
19049;SDS011;9657;45.940;12.840;2023-06-14T05:40:26;5.20;;;3.60;;
19049;SDS011;9657;45.940;12.840;2023-06-14T05:42:54;7.85;;;3.65;;
19049;SDS011;9657;45.940;12.840;2023-06-14T05:45:21;4.95;;;3.05;;
19049;SDS011;9657;45.940;12.840;2023-06-14T05:47:48;4.95;;;3.25;;
19049;SDS011;9657;45.940;12.840;2023-06-14T05:50:15;5.38;;;3.40;;
19049;SDS011;9657;45.940;12.840;2023-06-14T05:52:42;4.03;;;3.70;;
19049;SDS011;9657;45.940;12.840;2023-06-14T05:55:09;9.02;;;3.33;;
19049;SDS011;9657;45.940;12.840;2023-06-14T05:57:38;4.30;;;3.50;;
19049;SDS011;9657;45.940;12.840;2023-06-14T06:00:07;3.90;;;3.00;;
19049;SDS011;9657;45.940;12.840;2023-06-14T06:02:39;4.60;;;3.10;;
19049;SDS011;9657;45.940;12.840;2023-06-14T06:05:07;5.30;;;4.18;;
19049;SDS011;9657;45.940;12.840;2023-06-14T06:07:35;3.50;;;3.20;;
19049;SDS011;9657;45.940;12.840;2023-06-14T06:10:02;7.72;;;3.80;;
19049;SDS011;9657;45.940;12.840;2023-06-14T06:12:29;3.67;;;3.38;;
19049;SDS011;9657;45.940;12.840;2023-06-14T06:14:57;4.07;;;3.60;;
19049;SDS011;9657;45.940;12.840;2023-06-14T06:17:26;4.32;;;3.60;;
19049;SDS011;9657;45.940;12.840;2023-06-14T06:19:53;4.25;;;3.15;;
19049;SDS011;9657;45.940;12.840;2023-06-14T06:22:21;5.30;;;3.47;;
19049;SDS011;9657;45.940;12.840;2023-06-14T06:24:48;3.88;;;3.22;;
19049;SDS011;9657;45.940;12.840;2023-06-14T06:27:15;4.05;;;3.65;;
19049;SDS011;9657;45.940;12.840;2023-06-14T06:29:44;6.28;;;3.83;;
19049;SDS011;9657;45.940;12.840;2023-06-14T06:32:10;4.97;;;3.55;;
19049;SDS011;9657;45.940;12.840;2023-06-14T06:34:39;4.50;;;3.65;;
19049;SDS011;9657;45.940;12.840;2023-06-14T06:37:06;3.92;;;3.33;;
19049;SDS011;9657;45.940;12.840;2023-06-14T06:39:33;5.18;;;3.25;;
19049;SDS011;9657;45.940;12.840;2023-06-14T06:42:01;4.15;;;3.20;;
19049;SDS011;9657;45.940;12.840;2023-06-14T06:44:28;4.03;;;3.45;;
19049;SDS011;9657;45.940;12.840;2023-06-14T06:46:55;5.00;;;3.38;;
19049;SDS011;9657;45.940;12.840;2023-06-14T06:49:23;5.07;;;3.63;;
19049;SDS011;9657;45.940;12.840;2023-06-14T06:52:01;3.55;;;3.20;;
19049;SDS011;9657;45.940;12.840;2023-06-14T06:54:29;4.32;;;3.58;;
19049;SDS011;9657;45.940;12.840;2023-06-14T06:56:56;5.13;;;3.30;;
19049;SDS011;9657;45.940;12.840;2023-06-14T06:59:24;4.03;;;3.05;;
19049;SDS011;9657;45.940;12.840;2023-06-14T07:01:51;3.65;;;3.25;;
19049;SDS011;9657;45.940;12.840;2023-06-14T07:04:18;4.35;;;3.47;;
19049;SDS011;9657;45.940;12.840;2023-06-14T07:06:45;4.40;;;3.63;;
19049;SDS011;9657;45.940;12.840;2023-06-14T07:09:14;4.80;;;3.55;;
19049;SDS011;9657;45.940;12.840;2023-06-14T07:11:43;3.85;;;3.42;;
19049;SDS011;9657;45.940;12.840;2023-06-14T07:14:10;3.65;;;3.35;;
19049;SDS011;9657;45.940;12.840;2023-06-14T07:16:37;4.45;;;3.38;;
19049;SDS011;9657;45.940;12.840;2023-06-14T07:19:06;6.05;;;3.00;;
19049;SDS011;9657;45.940;12.840;2023-06-14T07:21:34;4.85;;;3.25;;
19049;SDS011;9657;45.940;12.840;2023-06-14T07:24:03;5.70;;;3.53;;
19049;SDS011;9657;45.940;12.840;2023-06-14T07:26:33;3.92;;;3.53;;
19049;SDS011;9657;45.940;12.840;2023-06-14T07:29:00;3.95;;;3.08;;
19049;SDS011;9657;45.940;12.840;2023-06-14T07:31:27;3.78;;;3.28;;
19049;SDS011;9657;45.940;12.840;2023-06-14T07:33:55;5.50;;;3.30;;
19049;SDS011;9657;45.940;12.840;2023-06-14T07:36:22;4.72;;;3.53;;
19049;SDS011;9657;45.940;12.840;2023-06-14T07:38:49;3.65;;;3.30;;
19049;SDS011;9657;45.940;12.840;2023-06-14T07:41:16;3.90;;;3.50;;
19049;SDS011;9657;45.940;12.840;2023-06-14T07:43:44;4.07;;;3.35;;
19049;SDS011;9657;45.940;12.840;2023-06-14T07:46:11;4.05;;;3.65;;
19049;SDS011;9657;45.940;12.840;2023-06-14T07:48:38;4.80;;;3.55;;
19049;SDS011;9657;45.940;12.840;2023-06-14T07:51:06;3.42;;;3.13;;
19049;SDS011;9657;45.940;12.840;2023-06-14T07:53:33;4.00;;;3.60;;
19049;SDS011;9657;45.940;12.840;2023-06-14T07:56:00;3.50;;;3.20;;
19049;SDS011;9657;45.940;12.840;2023-06-14T07:58:27;4.75;;;3.22;;
19049;SDS011;9657;45.940;12.840;2023-06-14T08:00:56;3.65;;;3.20;;
19049;SDS011;9657;45.940;12.840;2023-06-14T08:03:23;3.63;;;3.33;;
19049;SDS011;9657;45.940;12.840;2023-06-14T08:05:50;4.65;;;3.47;;
19049;SDS011;9657;45.940;12.840;2023-06-14T08:08:17;3.83;;;3.10;;
19049;SDS011;9657;45.940;12.840;2023-06-14T08:10:44;4.78;;;3.30;;
19049;SDS011;9657;45.940;12.840;2023-06-14T08:13:11;3.63;;;3.13;;
19049;SDS011;9657;45.940;12.840;2023-06-14T08:15:38;5.22;;;3.25;;
19049;SDS011;9657;45.940;12.840;2023-06-14T08:18:07;4.35;;;3.17;;
19049;SDS011;9657;45.940;12.840;2023-06-14T08:20:34;3.70;;;3.25;;
19049;SDS011;9657;45.940;12.840;2023-06-14T08:23:02;3.55;;;3.22;;
19049;SDS011;9657;45.940;12.840;2023-06-14T08:25:29;3.28;;;2.97;;
19049;SDS011;9657;45.940;12.840;2023-06-14T08:27:56;3.50;;;3.15;;
19049;SDS011;9657;45.940;12.840;2023-06-14T08:30:23;3.83;;;3.53;;
19049;SDS011;9657;45.940;12.840;2023-06-14T08:32:50;4.22;;;3.20;;
19049;SDS011;9657;45.940;12.840;2023-06-14T08:35:21;3.70;;;3.20;;
19049;SDS011;9657;45.940;12.840;2023-06-14T08:37:49;3.58;;;3.08;;
19049;SDS011;9657;45.940;12.840;2023-06-14T08:40:20;4.47;;;3.33;;
19049;SDS011;9657;45.940;12.840;2023-06-14T08:42:48;4.70;;;3.15;;
19049;SDS011;9657;45.940;12.840;2023-06-14T08:45:17;3.85;;;3.53;;
19049;SDS011;9657;45.940;12.840;2023-06-14T08:47:45;3.40;;;3.10;;
19049;SDS011;9657;45.940;12.840;2023-06-14T08:50:17;3.78;;;2.97;;
19049;SDS011;9657;45.940;12.840;2023-06-14T08:52:48;5.35;;;3.33;;
19049;SDS011;9657;45.940;12.840;2023-06-14T08:55:22;4.05;;;2.92;;
19049;SDS011;9657;45.940;12.840;2023-06-14T08:57:53;3.08;;;2.78;;
19049;SDS011;9657;45.940;12.840;2023-06-14T09:00:21;4.68;;;3.15;;
19049;SDS011;9657;45.940;12.840;2023-06-14T09:02:49;4.10;;;3.00;;
19049;SDS011;9657;45.940;12.840;2023-06-14T09:05:22;4.32;;;3.75;;
19049;SDS011;9657;45.940;12.840;2023-06-14T09:07:51;3.90;;;3.40;;
19049;SDS011;9657;45.940;12.840;2023-06-14T09:10:20;5.15;;;3.25;;
19049;SDS011;9657;45.940;12.840;2023-06-14T09:12:48;3.13;;;2.75;;
19049;SDS011;9657;45.940;12.840;2023-06-14T09:15:15;3.30;;;3.05;;
19049;SDS011;9657;45.940;12.840;2023-06-14T09:17:42;5.13;;;3.00;;
19049;SDS011;9657;45.940;12.840;2023-06-14T09:20:10;3.80;;;2.72;;
19049;SDS011;9657;45.940;12.840;2023-06-14T09:22:38;3.42;;;3.13;;
19049;SDS011;9657;45.940;12.840;2023-06-14T09:25:08;3.75;;;2.88;;
19049;SDS011;9657;45.940;12.840;2023-06-14T09:27:37;4.90;;;3.33;;
19049;SDS011;9657;45.940;12.840;2023-06-14T09:30:06;3.63;;;2.92;;
19049;SDS011;9657;45.940;12.840;2023-06-14T09:32:36;5.00;;;2.90;;
19049;SDS011;9657;45.940;12.840;2023-06-14T09:35:04;4.40;;;3.13;;
19049;SDS011;9657;45.940;12.840;2023-06-14T09:37:32;3.28;;;2.97;;
19049;SDS011;9657;45.940;12.840;2023-06-14T09:40:00;3.58;;;3.28;;
19049;SDS011;9657;45.940;12.840;2023-06-14T09:42:29;3.65;;;3.35;;
19049;SDS011;9657;45.940;12.840;2023-06-14T09:44:57;2.97;;;2.67;;
19049;SDS011;9657;45.940;12.840;2023-06-14T09:47:24;3.05;;;2.75;;
19049;SDS011;9657;45.940;12.840;2023-06-14T09:49:51;4.10;;;3.33;;
19049;SDS011;9657;45.940;12.840;2023-06-14T09:52:20;3.88;;;2.88;;
19049;SDS011;9657;45.940;12.840;2023-06-14T09:54:48;3.17;;;2.85;;
19049;SDS011;9657;45.940;12.840;2023-06-14T09:57:16;3.00;;;2.55;;
19049;SDS011;9657;45.940;12.840;2023-06-14T09:59:48;3.17;;;2.78;;
19049;SDS011;9657;45.940;12.840;2023-06-14T10:02:22;4.43;;;3.28;;
19049;SDS011;9657;45.940;12.840;2023-06-14T10:04:53;3.17;;;2.60;;
19049;SDS011;9657;45.940;12.840;2023-06-14T10:07:26;4.32;;;3.10;;
19049;SDS011;9657;45.940;12.840;2023-06-14T10:09:55;3.47;;;2.65;;
19049;SDS011;9657;45.940;12.840;2023-06-14T10:12:23;3.40;;;3.08;;
19049;SDS011;9657;45.940;12.840;2023-06-14T10:14:52;3.45;;;3.00;;
19049;SDS011;9657;45.940;12.840;2023-06-14T10:17:22;3.25;;;2.95;;
19049;SDS011;9657;45.940;12.840;2023-06-14T10:19:55;3.70;;;3.38;;
19049;SDS011;9657;45.940;12.840;2023-06-14T10:22:31;4.15;;;2.70;;
19049;SDS011;9657;45.940;12.840;2023-06-14T10:25:02;4.00;;;2.55;;
19049;SDS011;9657;45.940;12.840;2023-06-14T10:27:37;2.80;;;2.50;;
19049;SDS011;9657;45.940;12.840;2023-06-14T10:30:06;2.97;;;2.78;;
19049;SDS011;9657;45.940;12.840;2023-06-14T10:32:34;2.78;;;2.47;;
19049;SDS011;9657;45.940;12.840;2023-06-14T10:35:04;3.00;;;2.70;;
19049;SDS011;9657;45.940;12.840;2023-06-14T10:37:32;3.08;;;2.80;;
19049;SDS011;9657;45.940;12.840;2023-06-14T10:40:00;3.45;;;2.95;;
19049;SDS011;9657;45.940;12.840;2023-06-14T10:42:28;2.88;;;2.67;;
19049;SDS011;9657;45.940;12.840;2023-06-14T10:44:58;3.42;;;3.13;;
19049;SDS011;9657;45.940;12.840;2023-06-14T10:47:28;3.15;;;2.85;;
19049;SDS011;9657;45.940;12.840;2023-06-14T10:49:57;3.55;;;3.08;;
19049;SDS011;9657;45.940;12.840;2023-06-14T10:52:32;3.30;;;3.00;;
19049;SDS011;9657;45.940;12.840;2023-06-14T10:55:08;3.88;;;2.90;;
19049;SDS011;9657;45.940;12.840;2023-06-14T10:57:38;3.17;;;2.88;;
19049;SDS011;9657;45.940;12.840;2023-06-14T11:00:08;3.03;;;2.58;;
19049;SDS011;9657;45.940;12.840;2023-06-14T11:05:55;3.17;;;2.88;;
19049;SDS011;9657;45.940;12.840;2023-06-14T11:11:38;3.75;;;3.40;;
19049;SDS011;9657;45.940;12.840;2023-06-14T11:14:08;3.55;;;2.85;;
19049;SDS011;9657;45.940;12.840;2023-06-14T11:16:36;4.10;;;3.25;;
19049;SDS011;9657;45.940;12.840;2023-06-14T11:19:03;3.30;;;3.00;;
19049;SDS011;9657;45.940;12.840;2023-06-14T11:21:33;4.63;;;3.08;;
19049;SDS011;9657;45.940;12.840;2023-06-14T11:24:00;2.95;;;2.75;;
19049;SDS011;9657;45.940;12.840;2023-06-14T11:26:27;2.88;;;2.55;;
19049;SDS011;9657;45.940;12.840;2023-06-14T11:28:56;3.13;;;2.83;;
19049;SDS011;9657;45.940;12.840;2023-06-14T11:31:24;2.95;;;2.72;;
19049;SDS011;9657;45.940;12.840;2023-06-14T11:33:53;3.13;;;2.83;;
19049;SDS011;9657;45.940;12.840;2023-06-14T11:36:20;3.25;;;2.83;;
19049;SDS011;9657;45.940;12.840;2023-06-14T11:38:49;3.80;;;2.67;;
19049;SDS011;9657;45.940;12.840;2023-06-14T11:41:16;4.22;;;2.75;;
19049;SDS011;9657;45.940;12.840;2023-06-14T11:43:43;4.85;;;3.40;;
19049;SDS011;9657;45.940;12.840;2023-06-14T11:46:13;3.17;;;2.88;;
19049;SDS011;9657;45.940;12.840;2023-06-14T11:48:43;3.38;;;2.80;;
19049;SDS011;9657;45.940;12.840;2023-06-14T11:51:10;3.33;;;3.03;;
19049;SDS011;9657;45.940;12.840;2023-06-14T11:53:37;3.40;;;3.08;;
19049;SDS011;9657;45.940;12.840;2023-06-14T11:56:06;3.75;;;2.83;;
19049;SDS011;9657;45.940;12.840;2023-06-14T11:58:33;3.60;;;2.53;;
19049;SDS011;9657;45.940;12.840;2023-06-14T12:01:02;3.17;;;2.83;;
19049;SDS011;9657;45.940;12.840;2023-06-14T12:03:30;3.08;;;2.78;;
19049;SDS011;9657;45.940;12.840;2023-06-14T12:06:06;3.30;;;3.00;;
19049;SDS011;9657;45.940;12.840;2023-06-14T12:08:34;4.30;;;2.90;;
19049;SDS011;9657;45.940;12.840;2023-06-14T12:11:04;2.97;;;2.67;;
19049;SDS011;9657;45.940;12.840;2023-06-14T12:13:32;3.30;;;2.67;;
19049;SDS011;9657;45.940;12.840;2023-06-14T12:15:59;3.47;;;3.17;;
19049;SDS011;9657;45.940;12.840;2023-06-14T12:18:32;2.92;;;2.70;;
19049;SDS011;9657;45.940;12.840;2023-06-14T12:21:00;3.53;;;3.20;;
19049;SDS011;9657;45.940;12.840;2023-06-14T12:23:38;2.72;;;2.53;;
19049;SDS011;9657;45.940;12.840;2023-06-14T12:26:09;3.45;;;3.05;;
19049;SDS011;9657;45.940;12.840;2023-06-14T12:28:41;3.42;;;3.03;;
19049;SDS011;9657;45.940;12.840;2023-06-14T12:31:08;3.80;;;3.10;;
19049;SDS011;9657;45.940;12.840;2023-06-14T12:33:35;3.47;;;3.00;;
19049;SDS011;9657;45.940;12.840;2023-06-14T12:36:03;2.80;;;2.60;;
19049;SDS011;9657;45.940;12.840;2023-06-14T12:38:31;2.88;;;2.67;;
19049;SDS011;9657;45.940;12.840;2023-06-14T12:40:58;3.40;;;3.00;;
19049;SDS011;9657;45.940;12.840;2023-06-14T12:43:26;3.65;;;2.80;;
19049;SDS011;9657;45.940;12.840;2023-06-14T12:45:55;3.10;;;2.63;;
19049;SDS011;9657;45.940;12.840;2023-06-14T12:48:22;3.17;;;2.88;;
19049;SDS011;9657;45.940;12.840;2023-06-14T12:50:49;2.55;;;2.35;;
19049;SDS011;9657;45.940;12.840;2023-06-14T12:53:16;3.40;;;2.92;;
19049;SDS011;9657;45.940;12.840;2023-06-14T12:55:43;3.28;;;2.97;;
19049;SDS011;9657;45.940;12.840;2023-06-14T12:58:10;3.13;;;2.53;;
19049;SDS011;9657;45.940;12.840;2023-06-14T13:00:39;3.25;;;2.95;;
19049;SDS011;9657;45.940;12.840;2023-06-14T13:03:07;3.25;;;2.95;;
19049;SDS011;9657;45.940;12.840;2023-06-14T13:05:34;3.20;;;2.90;;
19049;SDS011;9657;45.940;12.840;2023-06-14T13:08:02;2.80;;;2.60;;
19049;SDS011;9657;45.940;12.840;2023-06-14T13:10:29;2.78;;;2.58;;
19049;SDS011;9657;45.940;12.840;2023-06-14T13:12:56;3.53;;;2.67;;
19049;SDS011;9657;45.940;12.840;2023-06-14T13:15:25;2.72;;;2.30;;
19049;SDS011;9657;45.940;12.840;2023-06-14T13:17:52;3.92;;;2.63;;
19049;SDS011;9657;45.940;12.840;2023-06-14T13:20:20;3.10;;;2.80;;
19049;SDS011;9657;45.940;12.840;2023-06-14T13:22:47;3.13;;;2.83;;
19049;SDS011;9657;45.940;12.840;2023-06-14T13:25:14;3.22;;;2.92;;
19049;SDS011;9657;45.940;12.840;2023-06-14T13:27:42;3.40;;;2.78;;
19049;SDS011;9657;45.940;12.840;2023-06-14T13:30:09;2.50;;;2.30;;
19049;SDS011;9657;45.940;12.840;2023-06-14T13:32:37;3.65;;;3.15;;
19049;SDS011;9657;45.940;12.840;2023-06-14T13:35:04;3.38;;;3.08;;
19049;SDS011;9657;45.940;12.840;2023-06-14T13:37:33;2.78;;;2.58;;
19049;SDS011;9657;45.940;12.840;2023-06-14T13:40:00;3.42;;;2.63;;
19049;SDS011;9657;45.940;12.840;2023-06-14T13:42:27;3.30;;;3.00;;
19049;SDS011;9657;45.940;12.840;2023-06-14T13:44:56;2.90;;;2.67;;
19049;SDS011;9657;45.940;12.840;2023-06-14T13:47:23;3.05;;;2.75;;
19049;SDS011;9657;45.940;12.840;2023-06-14T13:49:50;3.10;;;2.80;;
19049;SDS011;9657;45.940;12.840;2023-06-14T13:52:17;2.65;;;2.45;;
19049;SDS011;9657;45.940;12.840;2023-06-14T13:54:46;3.08;;;2.78;;
19049;SDS011;9657;45.940;12.840;2023-06-14T13:57:13;3.65;;;3.17;;
19049;SDS011;9657;45.940;12.840;2023-06-14T13:59:40;2.90;;;2.70;;
19049;SDS011;9657;45.940;12.840;2023-06-14T14:02:09;2.88;;;2.58;;
19049;SDS011;9657;45.940;12.840;2023-06-14T14:04:36;3.72;;;3.03;;
19049;SDS011;9657;45.940;12.840;2023-06-14T14:07:04;3.78;;;2.92;;
19049;SDS011;9657;45.940;12.840;2023-06-14T14:09:32;3.42;;;2.95;;
19049;SDS011;9657;45.940;12.840;2023-06-14T14:12:01;3.10;;;2.78;;
19049;SDS011;9657;45.940;12.840;2023-06-14T14:14:29;2.70;;;2.30;;
19049;SDS011;9657;45.940;12.840;2023-06-14T14:16:57;3.58;;;3.00;;
19049;SDS011;9657;45.940;12.840;2023-06-14T14:19:24;3.40;;;3.10;;
19049;SDS011;9657;45.940;12.840;2023-06-14T14:21:51;2.95;;;2.75;;
19049;SDS011;9657;45.940;12.840;2023-06-14T14:24:18;2.97;;;2.70;;
19049;SDS011;9657;45.940;12.840;2023-06-14T14:26:45;3.33;;;3.03;;
19049;SDS011;9657;45.940;12.840;2023-06-14T14:29:16;2.75;;;2.55;;
19049;SDS011;9657;45.940;12.840;2023-06-14T14:31:43;2.92;;;2.72;;
19049;SDS011;9657;45.940;12.840;2023-06-14T14:34:10;3.42;;;2.80;;
19049;SDS011;9657;45.940;12.840;2023-06-14T14:36:37;3.53;;;3.03;;
19049;SDS011;9657;45.940;12.840;2023-06-14T14:39:07;2.97;;;2.67;;
19049;SDS011;9657;45.940;12.840;2023-06-14T14:41:34;2.85;;;2.65;;
19049;SDS011;9657;45.940;12.840;2023-06-14T14:44:02;2.72;;;2.53;;
19049;SDS011;9657;45.940;12.840;2023-06-14T14:46:31;3.13;;;2.83;;
19049;SDS011;9657;45.940;12.840;2023-06-14T14:48:58;3.40;;;3.10;;
19049;SDS011;9657;45.940;12.840;2023-06-14T14:51:26;3.17;;;2.92;;
19049;SDS011;9657;45.940;12.840;2023-06-14T14:53:53;2.60;;;2.40;;
19049;SDS011;9657;45.940;12.840;2023-06-14T14:56:21;2.95;;;2.70;;
19049;SDS011;9657;45.940;12.840;2023-06-14T14:58:48;2.72;;;2.53;;
19049;SDS011;9657;45.940;12.840;2023-06-14T15:01:15;2.78;;;2.58;;
19049;SDS011;9657;45.940;12.840;2023-06-14T15:03:44;3.33;;;3.03;;